Time;durP1;ratioP1;P1;durP2;ratioP2;P2;SDS_P1;SDS_P2;PMS_P1;PMS_P2;Temp;Humidity;BMP_temperature;BMP_pressure;BME280_temperature;BME280_humidity;BME280_pressure;Samples;Min_cycle;Max_cycle;Signal;HPM_P1;HPM_P2
2023/05/27 00:00:04;;;;;;;5.43;2.53;;;;;;;;;;5054056;28;20032;-59
2023/05/27 00:02:30;;;;;;;6.50;2.58;;;;;;;;;;5054312;28;20586;-59
2023/05/27 00:04:56;;;;;;;7.78;2.65;;;;;;;;;;5054604;28;20077;-59
2023/05/27 00:07:22;;;;;;;11.05;3.10;;;;;;;;;;5054268;28;20124;-59
2023/05/27 00:09:48;;;;;;;6.38;2.67;;;;;;;;;;5054272;28;20025;-59
2023/05/27 00:12:15;;;;;;;4.07;2.30;;;;;;;;;;5053713;28;20482;-59
2023/05/27 00:14:41;;;;;;;5.75;2.38;;;;;;;;;;5054127;28;20454;-59
2023/05/27 00:17:09;;;;;;;6.50;2.25;;;;;;;;;;5053896;28;20040;-59
2023/05/27 00:19:35;;;;;;;4.18;2.22;;;;;;;;;;5053744;28;20074;-59
2023/05/27 00:22:01;;;;;;;3.50;1.92;;;;;;;;;;5053499;28;20031;-59
2023/05/27 00:24:26;;;;;;;5.80;2.85;;;;;;;;;;5053458;28;20024;-59
2023/05/27 00:26:52;;;;;;;4.40;2.50;;;;;;;;;;5054301;28;20028;-59
2023/05/27 00:29:19;;;;;;;8.82;2.63;;;;;;;;;;5053724;28;20033;-59
2023/05/27 00:31:45;;;;;;;5.75;2.47;;;;;;;;;;5053628;28;20075;-59
2023/05/27 00:34:11;;;;;;;8.13;2.65;;;;;;;;;;5053366;28;20108;-59
2023/05/27 00:36:37;;;;;;;5.60;2.47;;;;;;;;;;5053628;28;20451;-59
2023/05/27 00:39:05;;;;;;;5.75;3.17;;;;;;;;;;5053935;28;20043;-59
2023/05/27 00:41:31;;;;;;;11.00;3.45;;;;;;;;;;5054374;28;20099;-59
2023/05/27 00:43:57;;;;;;;8.07;3.22;;;;;;;;;;5053288;28;20515;-59
2023/05/27 00:46:23;;;;;;;3.47;2.38;;;;;;;;;;5053801;28;20063;-59
2023/05/27 00:48:49;;;;;;;4.90;2.58;;;;;;;;;;5053509;28;20032;-59
2023/05/27 00:51:16;;;;;;;6.68;2.53;;;;;;;;;;5053976;28;20021;-59
2023/05/27 00:53:43;;;;;;;3.92;2.10;;;;;;;;;;5053737;28;20017;-59
2023/05/27 00:56:09;;;;;;;6.05;2.83;;;;;;;;;;5052371;28;20486;-59
2023/05/27 00:58:36;;;;;;;7.07;2.22;;;;;;;;;;5053637;28;20371;-59
2023/05/27 01:01:02;;;;;;;3.05;2.17;;;;;;;;;;5053402;28;20025;-59
2023/05/27 01:03:29;;;;;;;5.90;2.83;;;;;;;;;;5053971;28;20021;-59
2023/05/27 01:06:00;;;;;;;5.15;2.53;;;;;;;;;;5053821;28;20192;-59
2023/05/27 01:08:37;;;;;;;7.38;3.17;;;;;;;;;;5053720;28;20069;-59
2023/05/27 01:11:04;;;;;;;5.70;2.75;;;;;;;;;;5052656;28;20036;-59
2023/05/27 01:13:36;;;;;;;4.63;2.45;;;;;;;;;;5053088;28;20032;-59
2023/05/27 01:16:02;;;;;;;7.40;2.78;;;;;;;;;;5053586;28;20071;-59
2023/05/27 01:18:29;;;;;;;3.88;2.40;;;;;;;;;;5053306;28;20031;-58
2023/05/27 01:21:00;;;;;;;4.88;2.72;;;;;;;;;;5053698;28;20033;-59
2023/05/27 01:23:27;;;;;;;5.53;2.28;;;;;;;;;;5053770;28;20029;-59
2023/05/27 01:25:53;;;;;;;4.25;2.03;;;;;;;;;;5053452;28;20061;-59
2023/05/27 01:28:19;;;;;;;4.57;2.47;;;;;;;;;;5053424;28;20036;-59
2023/05/27 01:30:45;;;;;;;3.85;1.85;;;;;;;;;;5052912;28;20021;-59
2023/05/27 01:33:17;;;;;;;4.07;1.98;;;;;;;;;;5055846;28;20100;-59
2023/05/27 01:35:45;;;;;;;6.32;2.70;;;;;;;;;;5056868;28;20442;-59
2023/05/27 01:38:13;;;;;;;6.10;2.72;;;;;;;;;;5056760;28;20029;-59
2023/05/27 01:40:40;;;;;;;7.15;1.88;;;;;;;;;;5057271;28;20452;-59
2023/05/27 01:43:06;;;;;;;5.38;2.15;;;;;;;;;;5056988;28;20032;-59
2023/05/27 01:45:33;;;;;;;4.72;2.50;;;;;;;;;;5056626;28;20025;-59
2023/05/27 01:47:59;;;;;;;5.97;3.10;;;;;;;;;;5056902;28;20043;-59
2023/05/27 01:50:25;;;;;;;4.90;2.80;;;;;;;;;;5056183;28;20029;-58
2023/05/27 01:52:51;;;;;;;6.55;2.65;;;;;;;;;;5057333;28;20108;-59
2023/05/27 01:55:17;;;;;;;5.82;2.33;;;;;;;;;;5056482;28;20044;-59
2023/05/27 01:57:43;;;;;;;11.75;2.58;;;;;;;;;;5057179;28;20021;-59
2023/05/27 02:00:09;;;;;;;7.60;2.97;;;;;;;;;;5056344;28;20029;-59
2023/05/27 02:02:36;;;;;;;5.05;2.35;;;;;;;;;;5056371;28;20033;-59
2023/05/27 02:05:02;;;;;;;4.38;2.63;;;;;;;;;;5055943;28;20024;-59
2023/05/27 02:07:28;;;;;;;3.67;2.50;;;;;;;;;;5057004;28;20132;-59
2023/05/27 02:09:54;;;;;;;3.67;2.15;;;;;;;;;;5056227;28;20068;-59
2023/05/27 02:12:20;;;;;;;2.88;2.08;;;;;;;;;;5055753;28;20474;-59
2023/05/27 02:14:46;;;;;;;4.03;2.05;;;;;;;;;;5056626;28;20049;-59
2023/05/27 02:17:14;;;;;;;6.60;2.88;;;;;;;;;;5056373;28;20124;-59
2023/05/27 02:19:41;;;;;;;5.05;2.55;;;;;;;;;;5056262;28;20148;-59
2023/05/27 02:22:07;;;;;;;5.70;2.85;;;;;;;;;;5056228;28;20100;-59
2023/05/27 02:24:33;;;;;;;3.72;2.05;;;;;;;;;;5055914;28;20103;-59
2023/05/27 02:27:00;;;;;;;3.60;2.25;;;;;;;;;;5056220;28;20112;-59
2023/05/27 02:29:26;;;;;;;6.70;2.40;;;;;;;;;;5055875;28;20021;-59
2023/05/27 02:31:52;;;;;;;6.70;1.98;;;;;;;;;;5056087;28;20056;-59
2023/05/27 02:34:18;;;;;;;6.35;3.00;;;;;;;;;;5056045;28;20064;-59
2023/05/27 02:36:44;;;;;;;3.72;2.58;;;;;;;;;;5056301;28;20029;-59
2023/05/27 02:39:10;;;;;;;7.28;3.05;;;;;;;;;;5055282;28;20467;-59
2023/05/27 02:41:36;;;;;;;5.57;2.75;;;;;;;;;;5055591;28;20131;-59
2023/05/27 02:44:02;;;;;;;7.38;2.35;;;;;;;;;;5055661;28;20459;-58
2023/05/27 02:46:28;;;;;;;5.38;3.00;;;;;;;;;;5056026;28;20075;-59
2023/05/27 02:48:54;;;;;;;12.93;2.92;;;;;;;;;;5056010;28;20029;-59
2023/05/27 02:51:22;;;;;;;2.90;1.77;;;;;;;;;;5055744;28;20086;-59
2023/05/27 02:53:48;;;;;;;7.00;2.90;;;;;;;;;;5055374;28;20036;-59
2023/05/27 02:56:14;;;;;;;8.10;3.15;;;;;;;;;;5055290;28;20021;-59
2023/05/27 02:58:40;;;;;;;5.15;2.33;;;;;;;;;;5055459;28;20029;-58
2023/05/27 03:01:06;;;;;;;6.90;2.97;;;;;;;;;;5055241;28;20056;-59
2023/05/27 03:03:32;;;;;;;5.35;2.80;;;;;;;;;;5055206;28;20017;-59
2023/05/27 03:05:58;;;;;;;5.20;2.58;;;;;;;;;;5055675;28;20039;-59
2023/05/27 03:08:24;;;;;;;6.45;3.00;;;;;;;;;;5054794;28;20508;-59
2023/05/27 03:10:50;;;;;;;7.55;3.10;;;;;;;;;;5055035;28;20029;-59
2023/05/27 03:13:16;;;;;;;5.40;2.58;;;;;;;;;;5054956;28;20029;-58
2023/05/27 03:15:42;;;;;;;5.63;2.30;;;;;;;;;;5055580;28;20471;-59
2023/05/27 03:18:07;;;;;;;6.18;2.70;;;;;;;;;;5054941;28;20155;-59
2023/05/27 03:20:33;;;;;;;7.10;2.70;;;;;;;;;;5055167;28;20032;-59
2023/05/27 03:22:59;;;;;;;5.57;2.33;;;;;;;;;;5055111;28;20028;-59
2023/05/27 03:25:25;;;;;;;5.60;2.50;;;;;;;;;;5054693;28;20029;-59
2023/05/27 03:27:53;;;;;;;6.10;2.38;;;;;;;;;;5055018;28;20025;-58
2023/05/27 03:30:19;;;;;;;3.75;2.47;;;;;;;;;;5054595;28;20048;-58
2023/05/27 03:32:45;;;;;;;2.97;1.90;;;;;;;;;;5055404;28;20115;-59
2023/05/27 03:35:11;;;;;;;7.15;2.65;;;;;;;;;;5055195;28;20465;-59
2023/05/27 03:37:37;;;;;;;7.57;3.00;;;;;;;;;;5054682;28;20025;-59
2023/05/27 03:40:03;;;;;;;4.72;2.60;;;;;;;;;;5054601;28;20037;-58
2023/05/27 03:42:29;;;;;;;5.32;2.92;;;;;;;;;;5055115;28;20032;-59
2023/05/27 03:44:55;;;;;;;5.82;2.75;;;;;;;;;;5055197;28;20029;-58
2023/05/27 03:47:21;;;;;;;3.65;1.90;;;;;;;;;;5054696;28;20478;-59
2023/05/27 03:49:48;;;;;;;3.47;2.35;;;;;;;;;;5054427;28;20025;-59
2023/05/27 03:52:14;;;;;;;4.78;2.47;;;;;;;;;;5054310;28;20033;-59
2023/05/27 03:54:41;;;;;;;3.58;2.00;;;;;;;;;;5054184;28;20032;-59
2023/05/27 03:57:07;;;;;;;4.40;2.40;;;;;;;;;;5052861;28;20439;-59
2023/05/27 03:59:33;;;;;;;8.20;3.00;;;;;;;;;;5054136;28;20040;-58
2023/05/27 04:01:59;;;;;;;7.35;2.47;;;;;;;;;;5054145;28;20029;-59
2023/05/27 04:04:25;;;;;;;3.33;1.85;;;;;;;;;;5054076;28;20025;-58
2023/05/27 04:06:53;;;;;;;3.95;2.38;;;;;;;;;;5054377;28;20032;-59
2023/05/27 04:09:19;;;;;;;7.78;3.08;;;;;;;;;;5054061;28;20072;-59
2023/05/27 04:11:45;;;;;;;4.65;2.42;;;;;;;;;;5054584;28;20072;-58
2023/05/27 04:14:11;;;;;;;4.80;2.67;;;;;;;;;;5053763;28;20045;-59
2023/05/27 04:16:37;;;;;;;4.97;2.25;;;;;;;;;;5053997;28;20028;-58
2023/05/27 04:19:03;;;;;;;5.78;2.58;;;;;;;;;;5054704;28;20024;-58
2023/05/27 04:21:29;;;;;;;8.93;2.95;;;;;;;;;;5053845;28;20111;-59
2023/05/27 04:23:55;;;;;;;4.40;2.60;;;;;;;;;;5053800;28;20036;-58
2023/05/27 04:26:21;;;;;;;7.88;2.90;;;;;;;;;;5054135;28;20033;-58
2023/05/27 04:28:48;;;;;;;5.95;2.25;;;;;;;;;;5053795;28;20059;-59
2023/05/27 04:31:15;;;;;;;8.05;3.42;;;;;;;;;;5053759;28;20033;-58
2023/05/27 04:33:44;;;;;;;5.68;2.33;;;;;;;;;;5054193;28;20041;-59
2023/05/27 04:36:11;;;;;;;5.50;3.00;;;;;;;;;;5054058;28;20071;-59
2023/05/27 04:38:37;;;;;;;4.28;2.55;;;;;;;;;;5053670;28;20029;-59
2023/05/27 04:41:03;;;;;;;8.82;2.72;;;;;;;;;;5054202;28;20079;-59
2023/05/27 04:43:29;;;;;;;6.82;2.95;;;;;;;;;;5054081;28;20032;-58
2023/05/27 04:45:56;;;;;;;5.72;2.90;;;;;;;;;;5053931;28;20493;-58
2023/05/27 04:48:23;;;;;;;5.18;2.42;;;;;;;;;;5053899;28;20135;-59
2023/05/27 04:50:53;;;;;;;4.20;2.00;;;;;;;;;;5053779;28;20460;-59
2023/05/27 04:53:19;;;;;;;5.15;2.45;;;;;;;;;;5053577;28;20368;-59
2023/05/27 04:55:45;;;;;;;6.70;2.83;;;;;;;;;;5054031;28;20029;-59
2023/05/27 04:58:12;;;;;;;5.45;2.53;;;;;;;;;;5053431;28;20547;-59
2023/05/27 05:00:52;;;;;;;5.05;2.22;;;;;;;;;;5053996;28;20074;-59
2023/05/27 05:03:21;;;;;;;5.18;2.58;;;;;;;;;;5053811;28;20463;-59
2023/05/27 05:05:51;;;;;;;4.25;2.33;;;;;;;;;;5053743;28;20033;-59
2023/05/27 05:08:17;;;;;;;4.97;2.10;;;;;;;;;;5056588;28;20051;-59
2023/05/27 05:10:43;;;;;;;5.95;2.92;;;;;;;;;;5057935;28;20021;-58
2023/05/27 05:13:10;;;;;;;5.15;2.88;;;;;;;;;;5057126;28;20415;-59
2023/05/27 05:15:36;;;;;;;9.13;3.58;;;;;;;;;;5057887;28;20088;-58
2023/05/27 05:18:02;;;;;;;6.68;2.38;;;;;;;;;;5057696;28;20064;-59
2023/05/27 05:20:28;;;;;;;10.95;2.83;;;;;;;;;;5057184;28;20492;-59
2023/05/27 05:22:55;;;;;;;4.45;2.50;;;;;;;;;;5057605;28;20025;-58
2023/05/27 05:25:21;;;;;;;5.75;2.45;;;;;;;;;;5056985;28;20032;-58
2023/05/27 05:27:47;;;;;;;7.00;2.05;;;;;;;;;;5057653;28;20025;-58
2023/05/27 05:30:13;;;;;;;6.00;2.50;;;;;;;;;;5057028;28;20037;-58
2023/05/27 05:32:39;;;;;;;5.38;3.22;;;;;;;;;;5056941;28;20128;-59
2023/05/27 05:35:05;;;;;;;5.15;2.30;;;;;;;;;;5057001;28;20025;-58
2023/05/27 05:37:31;;;;;;;6.75;3.03;;;;;;;;;;5057240;28;20479;-59
2023/05/27 05:39:57;;;;;;;5.78;2.60;;;;;;;;;;5055574;28;20025;-59
2023/05/27 05:42:24;;;;;;;11.38;3.47;;;;;;;;;;5057093;28;20031;-58
2023/05/27 05:44:52;;;;;;;4.47;2.63;;;;;;;;;;5056705;28;20083;-59
2023/05/27 05:47:18;;;;;;;5.90;2.75;;;;;;;;;;5056637;28;20073;-59
2023/05/27 05:49:44;;;;;;;9.57;2.72;;;;;;;;;;5056600;28;20029;-59
2023/05/27 05:52:10;;;;;;;5.05;3.17;;;;;;;;;;5056590;28;20033;-59
2023/05/27 05:54:36;;;;;;;5.43;2.40;;;;;;;;;;5056525;28;20029;-59
2023/05/27 05:57:02;;;;;;;7.45;3.13;;;;;;;;;;5057143;28;20458;-59
2023/05/27 05:59:28;;;;;;;11.68;3.20;;;;;;;;;;5057163;28;20021;-59
2023/05/27 06:01:54;;;;;;;4.53;2.53;;;;;;;;;;5056965;28;20372;-59
2023/05/27 06:04:20;;;;;;;6.57;3.17;;;;;;;;;;5056410;28;20021;-59
2023/05/27 06:06:46;;;;;;;5.18;3.40;;;;;;;;;;5056642;28;20040;-59
2023/05/27 06:09:12;;;;;;;6.90;2.85;;;;;;;;;;5056205;28;20029;-58
2023/05/27 06:11:38;;;;;;;5.32;2.90;;;;;;;;;;5056275;28;20032;-58
2023/05/27 06:14:05;;;;;;;6.45;3.13;;;;;;;;;;5055964;28;20045;-59
2023/05/27 06:16:31;;;;;;;5.80;3.00;;;;;;;;;;5056704;28;20044;-59
2023/05/27 06:18:57;;;;;;;8.35;3.35;;;;;;;;;;5055087;28;20025;-58
2023/05/27 06:21:23;;;;;;;4.63;2.70;;;;;;;;;;5056327;28;20177;-59
2023/05/27 06:23:49;;;;;;;5.50;3.88;;;;;;;;;;5055993;28;20081;-59
2023/05/27 06:26:15;;;;;;;6.88;3.38;;;;;;;;;;5056291;28;20036;-59
2023/05/27 06:28:41;;;;;;;7.90;3.30;;;;;;;;;;5055596;28;20353;-59
2023/05/27 06:31:07;;;;;;;8.98;3.42;;;;;;;;;;5056326;28;20474;-58
2023/05/27 06:33:33;;;;;;;8.10;3.25;;;;;;;;;;5056267;28;20029;-59
2023/05/27 06:35:59;;;;;;;5.38;2.50;;;;;;;;;;5056078;28;20104;-58
2023/05/27 06:38:25;;;;;;;6.35;3.50;;;;;;;;;;5055788;28;20028;-59
2023/05/27 06:40:51;;;;;;;7.07;3.60;;;;;;;;;;5055580;28;20021;-58
2023/05/27 06:43:17;;;;;;;6.93;3.58;;;;;;;;;;5055565;28;20025;-58
2023/05/27 06:45:43;;;;;;;7.10;3.72;;;;;;;;;;5055790;28;20526;-59
2023/05/27 06:48:09;;;;;;;4.93;3.22;;;;;;;;;;5055243;28;20090;-59
2023/05/27 06:50:35;;;;;;;4.78;2.45;;;;;;;;;;5055537;28;20077;-59
2023/05/27 06:53:01;;;;;;;11.73;3.35;;;;;;;;;;5055417;28;20025;-59
2023/05/27 06:55:27;;;;;;;7.03;3.08;;;;;;;;;;5055709;28;20104;-59
2023/05/27 06:57:53;;;;;;;4.53;2.60;;;;;;;;;;5056067;28;20021;-59
2023/05/27 07:00:19;;;;;;;7.05;2.47;;;;;;;;;;5055435;28;20451;-59
2023/05/27 07:02:45;;;;;;;6.75;3.08;;;;;;;;;;5055342;28;20108;-59
2023/05/27 07:05:11;;;;;;;6.82;2.78;;;;;;;;;;5055280;28;20060;-59
2023/05/27 07:07:37;;;;;;;5.40;3.03;;;;;;;;;;5055709;28;20029;-59
2023/05/27 07:10:03;;;;;;;9.60;2.58;;;;;;;;;;5055102;28;20056;-59
2023/05/27 07:12:29;;;;;;;6.13;3.80;;;;;;;;;;5055154;28;20028;-59
2023/05/27 07:14:55;;;;;;;5.10;2.45;;;;;;;;;;5055275;28;20048;-59
2023/05/27 07:17:21;;;;;;;9.57;3.35;;;;;;;;;;5055549;28;20025;-59
2023/05/27 07:19:47;;;;;;;7.20;3.28;;;;;;;;;;5055556;28;20036;-59
2023/05/27 07:22:13;;;;;;;3.20;2.47;;;;;;;;;;5054969;28;20029;-59
2023/05/27 07:24:39;;;;;;;4.00;2.63;;;;;;;;;;5054594;28;20422;-59
2023/05/27 07:27:05;;;;;;;8.73;3.50;;;;;;;;;;5055226;28;20055;-59
2023/05/27 07:29:31;;;;;;;5.30;2.47;;;;;;;;;;5054636;28;20434;-59
2023/05/27 07:31:57;;;;;;;5.57;3.22;;;;;;;;;;5054417;28;20040;-59
2023/05/27 07:34:23;;;;;;;6.50;3.25;;;;;;;;;;5054757;28;20029;-59
2023/05/27 07:36:49;;;;;;;6.53;3.03;;;;;;;;;;5054956;28;20071;-59
2023/05/27 07:39:15;;;;;;;6.28;2.75;;;;;;;;;;5054546;28;20056;-59
2023/05/27 07:41:41;;;;;;;4.25;2.88;;;;;;;;;;5054550;28;20028;-59
2023/05/27 07:44:07;;;;;;;7.85;3.30;;;;;;;;;;5054308;28;20029;-59
2023/05/27 07:46:33;;;;;;;6.57;2.83;;;;;;;;;;5054431;28;20029;-58
2023/05/27 07:49:00;;;;;;;6.40;2.83;;;;;;;;;;5055083;28;20054;-59
2023/05/27 07:51:26;;;;;;;4.80;2.60;;;;;;;;;;5054287;28;20024;-59
2023/05/27 07:53:52;;;;;;;7.22;2.95;;;;;;;;;;5054321;28;20021;-59
2023/05/27 07:56:18;;;;;;;6.15;2.83;;;;;;;;;;5054914;28;20136;-59
2023/05/27 07:58:44;;;;;;;6.65;3.45;;;;;;;;;;5053555;28;20471;-59
2023/05/27 08:01:10;;;;;;;5.20;2.78;;;;;;;;;;5054106;28;20036;-59
2023/05/27 08:03:36;;;;;;;6.10;3.55;;;;;;;;;;5054097;28;20037;-59
2023/05/27 08:06:02;;;;;;;16.00;3.42;;;;;;;;;;5054608;28;20043;-59
2023/05/27 08:08:28;;;;;;;8.18;3.42;;;;;;;;;;5054565;28;20443;-59
2023/05/27 08:10:54;;;;;;;7.90;3.97;;;;;;;;;;5054558;28;20033;-59
2023/05/27 08:13:20;;;;;;;8.35;3.28;;;;;;;;;;5053789;28;20029;-59
2023/05/27 08:15:46;;;;;;;6.03;3.40;;;;;;;;;;5054438;28;20525;-59
2023/05/27 08:18:13;;;;;;;4.32;2.55;;;;;;;;;;5054757;28;20033;-59
2023/05/27 08:20:39;;;;;;;4.07;2.88;;;;;;;;;;5054428;28;20031;-59
2023/05/27 08:23:05;;;;;;;4.93;3.15;;;;;;;;;;5053630;28;20096;-59
2023/05/27 08:25:31;;;;;;;5.57;2.97;;;;;;;;;;5053619;28;20029;-59
2023/05/27 08:28:01;;;;;;;7.15;3.75;;;;;;;;;;5054364;28;20036;-59
2023/05/27 08:30:28;;;;;;;6.70;3.33;;;;;;;;;;5054141;28;20444;-59
2023/05/27 08:32:54;;;;;;;6.43;3.03;;;;;;;;;;5053676;28;20029;-59
2023/05/27 08:35:20;;;;;;;6.07;3.50;;;;;;;;;;5053584;28;20143;-58
2023/05/27 08:37:46;;;;;;;7.85;3.53;;;;;;;;;;5053990;28;20079;-58
2023/05/27 08:40:16;;;;;;;6.97;3.78;;;;;;;;;;5053600;28;20028;-59
2023/05/27 08:42:42;;;;;;;6.63;3.72;;;;;;;;;;5053022;28;20175;-59
2023/05/27 08:45:09;;;;;;;5.32;3.72;;;;;;;;;;5053616;28;20064;-59
2023/05/27 08:47:35;;;;;;;5.70;3.88;;;;;;;;;;5053800;28;20242;-59
2023/05/27 08:50:03;;;;;;;7.40;3.13;;;;;;;;;;5053800;28;20486;-59
2023/05/27 08:52:29;;;;;;;5.30;3.22;;;;;;;;;;5054340;28;20067;-59
2023/05/27 08:54:56;;;;;;;6.07;3.33;;;;;;;;;;5053728;28;20025;-58
2023/05/27 08:57:26;;;;;;;5.30;3.60;;;;;;;;;;5053924;28;20025;-58
2023/05/27 08:59:52;;;;;;;4.57;3.10;;;;;;;;;;5053772;28;20040;-58
2023/05/27 09:02:18;;;;;;;5.32;2.80;;;;;;;;;;5053695;28;20025;-58
2023/05/27 09:04:46;;;;;;;5.45;3.40;;;;;;;;;;5053901;28;20066;-58
2023/05/27 09:07:12;;;;;;;5.20;3.25;;;;;;;;;;5053619;28;20032;-59
2023/05/27 09:09:38;;;;;;;4.80;3.95;;;;;;;;;;5053707;28;20382;-58
2023/05/27 09:12:05;;;;;;;14.05;4.05;;;;;;;;;;5053247;28;20024;-59
2023/05/27 09:14:32;;;;;;;4.47;3.28;;;;;;;;;;5053843;28;20371;-59
2023/05/27 09:17:05;;;;;;;9.43;3.67;;;;;;;;;;5053190;28;20036;-59
2023/05/27 09:19:31;;;;;;;6.78;3.25;;;;;;;;;;5053165;28;20390;-59
2023/05/27 09:21:57;;;;;;;6.50;3.72;;;;;;;;;;5053336;28;20128;-59
2023/05/27 09:24:24;;;;;;;8.30;3.95;;;;;;;;;;5053295;28;20067;-58
2023/05/27 09:26:53;;;;;;;4.38;3.35;;;;;;;;;;5054031;28;20029;-59
2023/05/27 09:29:20;;;;;;;7.82;3.40;;;;;;;;;;5053555;28;20043;-58
2023/05/27 09:31:46;;;;;;;8.48;3.80;;;;;;;;;;5053157;28;20029;-59
2023/05/27 09:34:16;;;;;;;7.70;4.20;;;;;;;;;;5053520;28;20454;-59
2023/05/27 09:36:43;;;;;;;6.40;3.28;;;;;;;;;;5053569;28;20521;-58
2023/05/27 09:39:10;;;;;;;4.85;3.20;;;;;;;;;;5053963;28;20056;-59
2023/05/27 09:41:37;;;;;;;5.30;3.55;;;;;;;;;;5053840;28;20032;-59
2023/05/27 09:44:05;;;;;;;6.47;3.47;;;;;;;;;;5053583;28;20025;-59
2023/05/27 09:46:32;;;;;;;5.07;3.60;;;;;;;;;;5053547;28;20029;-59
2023/05/27 09:48:59;;;;;;;4.32;3.40;;;;;;;;;;5053076;28;20025;-59
2023/05/27 09:51:26;;;;;;;6.13;3.97;;;;;;;;;;5053111;28;20434;-58
2023/05/27 09:53:55;;;;;;;10.30;3.85;;;;;;;;;;5053511;28;20464;-58
2023/05/27 09:56:23;;;;;;;6.40;3.53;;;;;;;;;;5056549;28;20033;-58
2023/05/27 09:58:49;;;;;;;8.00;3.33;;;;;;;;;;5056373;28;20025;-58
2023/05/27 10:01:17;;;;;;;5.95;4.00;;;;;;;;;;5056351;28;20049;-58
2023/05/27 10:03:44;;;;;;;6.63;4.05;;;;;;;;;;5057140;28;20118;-58
2023/05/27 10:06:12;;;;;;;4.55;3.08;;;;;;;;;;5056326;28;20029;-58
2023/05/27 10:08:38;;;;;;;7.13;3.78;;;;;;;;;;5056288;28;20447;-57
2023/05/27 10:11:05;;;;;;;6.70;3.70;;;;;;;;;;5057108;28;20017;-58
2023/05/27 10:13:31;;;;;;;8.10;3.50;;;;;;;;;;5055820;28;20052;-58
2023/05/27 10:15:57;;;;;;;7.93;4.72;;;;;;;;;;5056975;28;20033;-58
2023/05/27 10:18:24;;;;;;;4.60;3.50;;;;;;;;;;5056114;28;20028;-58
2023/05/27 10:20:50;;;;;;;7.65;3.35;;;;;;;;;;5056115;28;20455;-58
2023/05/27 10:23:18;;;;;;;6.22;4.28;;;;;;;;;;5056523;28;20036;-58
2023/05/27 10:25:48;;;;;;;4.40;3.20;;;;;;;;;;5055885;28;20120;-58
2023/05/27 10:28:24;;;;;;;5.32;3.15;;;;;;;;;;5055971;28;20029;-58
2023/05/27 10:30:50;;;;;;;7.68;3.38;;;;;;;;;;5056405;28;20036;-58
2023/05/27 10:33:16;;;;;;;9.57;4.00;;;;;;;;;;5055934;28;20389;-58
2023/05/27 10:35:43;;;;;;;4.75;3.25;;;;;;;;;;5056616;28;20033;-57
2023/05/27 10:38:16;;;;;;;5.65;4.10;;;;;;;;;;5056067;28;20363;-58
2023/05/27 10:40:42;;;;;;;4.97;3.08;;;;;;;;;;5055705;28;20025;-58
2023/05/27 10:43:15;;;;;;;6.20;3.92;;;;;;;;;;5055687;28;20025;-58
2023/05/27 10:45:41;;;;;;;4.57;3.90;;;;;;;;;;5054917;28;20359;-58
2023/05/27 10:48:20;;;;;;;5.47;4.18;;;;;;;;;;5056360;28;20028;-58
2023/05/27 10:50:53;;;;;;;6.97;4.50;;;;;;;;;;5055486;28;20025;-58
2023/05/27 10:53:20;;;;;;;6.28;3.55;;;;;;;;;;5055915;28;20028;-58
2023/05/27 10:55:49;;;;;;;8.32;3.58;;;;;;;;;;5056152;28;20055;-58
2023/05/27 10:58:17;;;;;;;7.18;3.58;;;;;;;;;;5055845;28;20131;-58
2023/05/27 11:00:45;;;;;;;5.07;3.33;;;;;;;;;;5055235;28;20041;-58
2023/05/27 11:03:24;;;;;;;10.50;4.20;;;;;;;;;;5056014;28;20098;-58
2023/05/27 11:06:02;;;;;;;5.60;4.25;;;;;;;;;;5054479;28;20029;-58
2023/05/27 11:08:28;;;;;;;6.25;4.15;;;;;;;;;;5055144;28;20029;-58
2023/05/27 11:11:05;;;;;;;3.78;3.00;;;;;;;;;;5055076;28;20021;-58
2023/05/27 11:13:32;;;;;;;6.00;3.97;;;;;;;;;;5054918;28;20071;-58
2023/05/27 11:15:59;;;;;;;5.15;3.83;;;;;;;;;;5055844;28;20035;-58
2023/05/27 11:18:25;;;;;;;5.93;3.75;;;;;;;;;;5055849;28;20099;-58
2023/05/27 11:20:51;;;;;;;5.30;3.90;;;;;;;;;;5055246;28;20039;-58
2023/05/27 11:23:17;;;;;;;7.00;4.38;;;;;;;;;;5054857;28;20025;-58
2023/05/27 11:25:45;;;;;;;4.60;3.63;;;;;;;;;;5055068;28;20076;-58
2023/05/27 11:28:16;;;;;;;8.68;4.75;;;;;;;;;;5054534;28;20020;-58
2023/05/27 11:30:42;;;;;;;6.97;3.92;;;;;;;;;;5054660;28;20017;-58
2023/05/27 11:33:08;;;;;;;5.30;3.35;;;;;;;;;;5054708;28;20033;-58
2023/05/27 11:35:34;;;;;;;4.65;3.72;;;;;;;;;;5054696;28;20032;-58
2023/05/27 11:38:02;;;;;;;5.38;3.50;;;;;;;;;;5054695;28;20021;-58
2023/05/27 11:40:34;;;;;;;8.45;3.40;;;;;;;;;;5054531;28;20025;-58
2023/05/27 11:43:01;;;;;;;8.77;3.80;;;;;;;;;;5054771;28;20103;-59
2023/05/27 11:45:28;;;;;;;10.82;4.05;;;;;;;;;;5054351;28;20083;-59
2023/05/27 11:47:54;;;;;;;7.18;3.88;;;;;;;;;;5054954;28;20024;-59
2023/05/27 11:50:23;;;;;;;4.95;3.38;;;;;;;;;;5054576;28;20021;-59
2023/05/27 11:52:56;;;;;;;6.78;3.88;;;;;;;;;;5054364;28;20033;-59
2023/05/27 11:55:25;;;;;;;7.75;3.88;;;;;;;;;;5054619;28;20063;-59
2023/05/27 11:57:51;;;;;;;5.47;3.55;;;;;;;;;;5054294;28;20021;-59
2023/05/27 12:00:17;;;;;;;4.70;3.53;;;;;;;;;;5054226;28;20021;-59
2023/05/27 12:02:44;;;;;;;7.28;4.28;;;;;;;;;;5054125;28;20474;-59
2023/05/27 12:05:10;;;;;;;7.93;4.45;;;;;;;;;;5054136;28;20021;-59
2023/05/27 12:07:40;;;;;;;9.88;3.88;;;;;;;;;;5054333;28;20363;-59
2023/05/27 12:10:06;;;;;;;4.97;3.72;;;;;;;;;;5054092;28;20047;-59
2023/05/27 12:12:34;;;;;;;5.47;3.92;;;;;;;;;;5053762;28;20486;-59
2023/05/27 12:15:00;;;;;;;4.90;3.20;;;;;;;;;;5054387;28;20056;-59
2023/05/27 12:17:26;;;;;;;5.88;4.50;;;;;;;;;;5053529;28;20021;-59
2023/05/27 12:19:52;;;;;;;5.57;3.85;;;;;;;;;;5054214;28;20104;-59
2023/05/27 12:22:18;;;;;;;6.55;3.40;;;;;;;;;;5053941;28;20099;-59
2023/05/27 12:24:44;;;;;;;4.75;3.67;;;;;;;;;;5053924;28;20043;-59
2023/05/27 12:27:10;;;;;;;7.20;3.88;;;;;;;;;;5054477;28;20521;-59
2023/05/27 12:29:36;;;;;;;6.93;4.57;;;;;;;;;;5054079;28;20024;-59
2023/05/27 12:32:03;;;;;;;6.45;4.15;;;;;;;;;;5054607;28;20044;-59
2023/05/27 12:34:29;;;;;;;9.50;4.50;;;;;;;;;;5053721;28;20029;-59
2023/05/27 12:36:54;;;;;;;7.47;4.28;;;;;;;;;;5054160;28;20021;-59
2023/05/27 12:39:21;;;;;;;5.57;3.80;;;;;;;;;;5053844;28;20025;-59
2023/05/27 12:41:46;;;;;;;5.57;4.05;;;;;;;;;;5053783;28;20135;-59
2023/05/27 12:44:13;;;;;;;5.25;4.13;;;;;;;;;;5053778;28;20092;-59
2023/05/27 12:46:39;;;;;;;5.85;4.38;;;;;;;;;;5054214;28;20065;-59
2023/05/27 12:49:07;;;;;;;6.25;4.10;;;;;;;;;;5053603;28;20033;-59
2023/05/27 12:51:33;;;;;;;6.38;4.25;;;;;;;;;;5054079;28;20435;-59
2023/05/27 12:53:59;;;;;;;7.43;4.25;;;;;;;;;;5053620;28;20028;-59
2023/05/27 12:56:25;;;;;;;4.95;4.00;;;;;;;;;;5054184;28;20029;-59
2023/05/27 12:58:51;;;;;;;4.80;3.65;;;;;;;;;;5053634;28;20021;-59
2023/05/27 13:01:17;;;;;;;5.53;3.85;;;;;;;;;;5053795;28;20110;-60
2023/05/27 13:03:43;;;;;;;7.45;4.28;;;;;;;;;;5053905;28;20032;-59
2023/05/27 13:06:09;;;;;;;6.05;4.43;;;;;;;;;;5053140;28;20025;-59
2023/05/27 13:08:36;;;;;;;7.20;4.20;;;;;;;;;;5053420;28;20031;-59
2023/05/27 13:11:02;;;;;;;5.05;3.40;;;;;;;;;;5053853;28;20033;-59
2023/05/27 13:13:28;;;;;;;12.40;4.07;;;;;;;;;;5053438;28;20337;-59
2023/05/27 13:15:54;;;;;;;6.97;4.47;;;;;;;;;;5053653;28;20024;-59
2023/05/27 13:18:20;;;;;;;9.05;4.40;;;;;;;;;;5053891;28;20031;-59
2023/05/27 13:20:46;;;;;;;6.47;4.68;;;;;;;;;;5052915;28;20017;-59
2023/05/27 13:23:12;;;;;;;6.30;5.00;;;;;;;;;;5053294;28;20139;-59
2023/05/27 13:25:39;;;;;;;6.05;4.07;;;;;;;;;;5054074;28;20071;-59
2023/05/27 13:28:05;;;;;;;7.38;4.82;;;;;;;;;;5054580;28;20104;-59
2023/05/27 13:30:31;;;;;;;6.90;4.10;;;;;;;;;;5056945;28;20111;-59
2023/05/27 13:32:57;;;;;;;6.50;4.43;;;;;;;;;;5057229;28;20505;-59
2023/05/27 13:35:22;;;;;;;6.22;4.00;;;;;;;;;;5056876;28;20029;-59
2023/05/27 13:37:49;;;;;;;7.18;3.97;;;;;;;;;;5057625;28;20106;-59
2023/05/27 13:40:15;;;;;;;5.30;3.83;;;;;;;;;;5057501;28;20020;-59
2023/05/27 13:42:41;;;;;;;6.95;4.18;;;;;;;;;;5057248;28;20159;-59
2023/05/27 13:45:08;;;;;;;6.63;4.00;;;;;;;;;;5056331;28;20048;-59
2023/05/27 13:47:34;;;;;;;7.43;4.28;;;;;;;;;;5056758;28;20043;-59
2023/05/27 13:50:00;;;;;;;7.00;4.07;;;;;;;;;;5056590;28;20497;-59
2023/05/27 13:52:27;;;;;;;6.68;4.03;;;;;;;;;;5056611;28;20025;-59
2023/05/27 13:54:53;;;;;;;9.73;4.50;;;;;;;;;;5057326;28;20039;-59
2023/05/27 13:57:19;;;;;;;6.60;4.32;;;;;;;;;;5057124;28;20107;-59
2023/05/27 13:59:45;;;;;;;8.15;3.63;;;;;;;;;;5056318;28;20501;-59
2023/05/27 14:02:11;;;;;;;6.13;4.28;;;;;;;;;;5056411;28;20029;-59
2023/05/27 14:04:37;;;;;;;4.35;3.45;;;;;;;;;;5056318;28;20471;-59
2023/05/27 14:07:03;;;;;;;6.50;3.70;;;;;;;;;;5056919;28;20037;-59
2023/05/27 14:09:29;;;;;;;5.65;3.17;;;;;;;;;;5056284;28;20474;-59
2023/05/27 14:11:55;;;;;;;5.80;4.28;;;;;;;;;;5056732;28;20036;-59
2023/05/27 14:14:21;;;;;;;5.07;3.65;;;;;;;;;;5056749;28;20045;-59
2023/05/27 14:16:47;;;;;;;4.18;2.65;;;;;;;;;;5056257;28;20481;-59
2023/05/27 14:19:13;;;;;;;3.88;2.92;;;;;;;;;;5056380;28;20032;-59
2023/05/27 14:21:40;;;;;;;6.07;3.47;;;;;;;;;;5056071;28;20363;-59
2023/05/27 14:24:06;;;;;;;6.28;3.28;;;;;;;;;;5056079;28;20028;-59
2023/05/27 14:26:32;;;;;;;5.45;3.15;;;;;;;;;;5056795;28;20189;-59
2023/05/27 14:28:58;;;;;;;3.58;2.70;;;;;;;;;;5055695;28;20025;-59
2023/05/27 14:31:24;;;;;;;5.38;3.38;;;;;;;;;;5055817;28;20025;-60
2023/05/27 14:33:50;;;;;;;4.25;2.70;;;;;;;;;;5055935;28;20103;-59
2023/05/27 14:36:16;;;;;;;3.95;2.95;;;;;;;;;;5056434;28;20031;-59
2023/05/27 14:38:43;;;;;;;7.90;3.15;;;;;;;;;;5055819;28;20565;-59